createdAt,value
2022-09-10T00:02:17.233Z,14.70
2022-09-10T00:04:48.195Z,17.20
2022-09-10T00:07:19.645Z,12.70
2022-09-10T00:09:50.472Z,12.00
2022-09-10T00:12:21.447Z,10.10
2022-09-10T00:14:53.581Z,12.10
2022-09-10T00:17:24.745Z,10.20
2022-09-10T00:19:56.281Z,9.50
2022-09-10T00:22:27.307Z,12.30
2022-09-10T00:24:59.749Z,10.70
2022-09-10T00:27:30.981Z,13.10
2022-09-10T00:30:02.814Z,11.40
2022-09-10T00:32:34.967Z,10.70
2022-09-10T00:35:09.447Z,14.30
2022-09-10T00:37:40.850Z,10.70
2022-09-10T00:40:12.725Z,12.50
2022-09-10T00:42:44.836Z,11.00
2022-09-10T00:45:22.531Z,15.90
2022-09-10T00:47:56.503Z,12.00
2022-09-10T00:50:31.219Z,15.70
2022-09-10T00:53:06.612Z,13.50
2022-09-10T00:55:41.120Z,13.10
2022-09-10T00:58:15.476Z,16.00
2022-09-10T01:00:46.445Z,12.60
2022-09-10T01:03:25.694Z,13.60
2022-09-10T01:05:58.531Z,12.40
2022-09-10T01:08:29.739Z,12.80
2022-09-10T01:11:13.102Z,10.70
2022-09-10T01:14:04.979Z,14.00
2022-09-10T01:16:45.623Z,13.70
2022-09-10T01:19:38.423Z,12.80
2022-09-10T01:22:23.105Z,13.60
2022-09-10T01:25:04.965Z,11.00
2022-09-10T01:27:43.881Z,10.90
2022-09-10T01:30:19.355Z,9.80
2022-09-10T01:33:07.622Z,11.70
2022-09-10T01:35:46.328Z,11.70
2022-09-10T01:38:23.631Z,12.90
2022-09-10T01:40:56.612Z,12.20
2022-09-10T01:43:29.481Z,10.00
2022-09-10T01:46:18.575Z,12.20
2022-09-10T01:49:14.010Z,9.70
2022-09-10T01:52:04.157Z,14.90
2022-09-10T01:54:47.930Z,12.00
2022-09-10T01:57:33.525Z,9.90
2022-09-10T02:00:09.995Z,10.30
2022-09-10T02:02:54.845Z,11.30
2022-09-10T02:05:30.965Z,10.20
2022-09-10T02:08:06.728Z,8.80
2022-09-10T02:13:10.620Z,10.20
2022-09-10T02:16:03.345Z,10.30
2022-09-10T02:18:43.655Z,9.00
2022-09-10T02:21:15.480Z,9.30
2022-09-10T02:23:50.031Z,9.10
2022-09-10T02:26:24.117Z,10.40
2022-09-10T02:28:55.324Z,12.50
2022-09-10T02:31:26.633Z,12.00
2022-09-10T02:33:58.851Z,11.00
2022-09-10T02:36:31.967Z,10.60
2022-09-10T02:39:05.632Z,11.20
2022-09-10T02:41:41.571Z,12.40
2022-09-10T02:44:12.739Z,16.30
2022-09-10T02:46:45.480Z,15.20
2022-09-10T02:49:21.124Z,10.90
2022-09-10T02:51:52.305Z,14.50
2022-09-10T02:54:23.176Z,13.50
2022-09-10T02:56:54.119Z,13.30
2022-09-10T02:59:25.320Z,14.60
2022-09-10T03:01:56.438Z,16.40
2022-09-10T03:04:27.483Z,20.00
2022-09-10T03:06:58.350Z,15.40
2022-09-10T03:09:30.112Z,12.00
2022-09-10T03:12:00.992Z,13.80
2022-09-10T03:14:31.900Z,14.60
2022-09-10T03:17:06.268Z,15.90
2022-09-10T03:19:37.406Z,13.30
2022-09-10T03:22:08.749Z,15.70
2022-09-10T03:24:40.834Z,13.90
2022-09-10T03:27:11.753Z,15.60
2022-09-10T03:29:45.416Z,14.50
2022-09-10T03:32:16.543Z,18.20
2022-09-10T03:34:47.410Z,10.90
2022-09-10T03:37:21.184Z,14.70
2022-09-10T03:39:52.039Z,10.60
2022-09-10T03:42:23.467Z,13.80
2022-09-10T03:44:56.459Z,11.40
2022-09-10T03:47:29.865Z,11.90
2022-09-10T03:50:00.960Z,10.90
2022-09-10T03:52:31.896Z,13.40
2022-09-10T03:55:02.895Z,12.10
2022-09-10T03:57:33.830Z,12.00
2022-09-10T04:00:06.306Z,9.40
2022-09-10T04:02:46.944Z,12.90
2022-09-10T04:05:19.124Z,11.60
2022-09-10T04:07:50.154Z,12.60
2022-09-10T04:10:21.943Z,17.00
2022-09-10T04:12:54.061Z,16.70
2022-09-10T04:15:26.057Z,14.50
2022-09-10T04:17:57.924Z,15.60
2022-09-10T04:20:30.878Z,17.00
2022-09-10T04:23:12.496Z,13.60
2022-09-10T04:25:44.358Z,16.10
2022-09-10T04:28:16.340Z,14.70
2022-09-10T04:30:51.347Z,16.20
2022-09-10T04:33:26.232Z,13.90
2022-09-10T04:36:00.665Z,13.30
2022-09-10T04:38:33.266Z,16.00
2022-09-10T04:41:07.093Z,12.40
2022-09-10T04:43:40.398Z,13.70
2022-09-10T04:46:11.362Z,15.60
2022-09-10T04:48:45.494Z,16.90
2022-09-10T04:51:19.838Z,16.40
2022-09-10T04:53:52.973Z,13.00
2022-09-10T04:56:26.430Z,15.30
2022-09-10T04:58:57.801Z,14.20
2022-09-10T05:01:32.324Z,11.90
2022-09-10T05:04:03.508Z,13.00
2022-09-10T05:06:39.328Z,14.00
2022-09-10T05:09:13.427Z,12.30
2022-09-10T05:11:47.156Z,13.10
2022-09-10T05:14:19.316Z,11.30
2022-09-10T05:16:50.918Z,11.30
2022-09-10T05:19:22.026Z,13.30
2022-09-10T05:21:58.801Z,11.50
2022-09-10T05:24:30.097Z,11.50
2022-09-10T05:27:01.846Z,9.30
2022-09-10T05:29:33.114Z,8.90
2022-09-10T05:32:04.669Z,9.30
2022-09-10T05:34:35.497Z,10.50
2022-09-10T05:37:08.718Z,12.00
2022-09-10T05:39:40.247Z,11.00
2022-09-10T05:42:13.852Z,9.80
2022-09-10T05:44:45.802Z,12.20
2022-09-10T05:47:17.108Z,9.00
2022-09-10T05:49:49.427Z,9.70
2022-09-10T05:52:20.674Z,11.60
2022-09-10T05:54:52.137Z,11.00
2022-09-10T05:57:22.979Z,10.00
2022-09-10T05:59:55.271Z,10.40
2022-09-10T06:02:27.549Z,8.00
2022-09-10T06:05:00.634Z,9.20
2022-09-10T06:07:35.854Z,8.00
2022-09-10T06:12:52.823Z,9.40
2022-09-10T06:15:25.623Z,9.50
2022-09-10T06:17:58.074Z,7.50
2022-09-10T06:20:29.456Z,9.30
2022-09-10T06:23:00.938Z,10.10
2022-09-10T06:25:37.235Z,7.90
2022-09-10T06:28:12.687Z,10.70
2022-09-10T06:30:45.143Z,13.60
2022-09-10T06:33:16.714Z,9.30
2022-09-10T06:35:54.879Z,8.80
2022-09-10T06:38:31.121Z,11.50
2022-09-10T06:41:04.903Z,10.90
2022-09-10T06:43:42.582Z,8.50
2022-09-10T06:49:14.592Z,10.50
2022-09-10T06:51:50.187Z,9.70
2022-09-10T06:54:21.677Z,12.80
2022-09-10T06:56:52.837Z,8.90
2022-09-10T06:59:23.721Z,8.90
2022-09-10T07:01:55.675Z,12.90
2022-09-10T07:04:26.649Z,11.00
2022-09-10T07:07:00.828Z,11.70
2022-09-10T07:09:34.089Z,10.10
2022-09-10T07:12:06.992Z,12.60
2022-09-10T07:14:41.119Z,13.00
2022-09-10T07:17:16.004Z,12.90
2022-09-10T07:19:48.841Z,12.10
2022-09-10T07:22:37.888Z,10.30
2022-09-10T07:25:12.881Z,12.90
2022-09-10T07:28:21.952Z,12.90
2022-09-10T07:30:55.198Z,8.60
2022-09-10T07:33:27.508Z,10.00
2022-09-10T07:36:04.333Z,10.80
2022-09-10T07:38:35.820Z,12.70
2022-09-10T07:41:09.070Z,11.90
2022-09-10T07:43:42.120Z,10.20
2022-09-10T07:46:20.917Z,11.20
2022-09-10T07:48:58.790Z,10.40
2022-09-10T07:51:33.122Z,10.60
2022-09-10T07:56:43.565Z,10.10
2022-09-10T07:59:17.894Z,12.00
2022-09-10T08:01:52.921Z,12.20
2022-09-10T08:04:24.651Z,17.00
2022-09-10T08:06:56.790Z,13.70
2022-09-10T08:09:29.044Z,13.50
2022-09-10T08:12:01.102Z,11.70
2022-09-10T08:14:32.838Z,15.60
2022-09-10T08:17:04.595Z,16.40
2022-09-10T08:19:37.901Z,13.30
2022-09-10T08:22:13.435Z,13.40
2022-09-10T08:24:53.864Z,13.10
2022-09-10T08:27:27.165Z,13.70
2022-09-10T08:29:58.718Z,15.70
2022-09-10T08:32:29.978Z,14.70
2022-09-10T08:35:01.777Z,16.40
2022-09-10T08:37:35.543Z,15.90
2022-09-10T08:40:15.075Z,17.10
2022-09-10T08:42:50.288Z,17.00
2022-09-10T08:45:25.666Z,19.30
2022-09-10T08:48:04.242Z,15.30
2022-09-10T08:50:45.305Z,17.20
2022-09-10T08:53:28.145Z,15.50
2022-09-10T08:56:05.431Z,18.50
2022-09-10T08:58:42.408Z,16.10
2022-09-10T09:01:22.947Z,17.10
2022-09-10T09:03:56.831Z,16.70
2022-09-10T09:06:34.420Z,21.10
2022-09-10T09:09:07.104Z,16.80
2022-09-10T09:11:56.305Z,17.90
2022-09-10T09:14:47.004Z,15.60
2022-09-10T09:17:35.202Z,20.50
2022-09-10T09:20:18.211Z,17.00
2022-09-10T09:22:55.230Z,15.00
2022-09-10T09:25:45.034Z,17.70
2022-09-10T09:28:24.084Z,16.70
2022-09-10T09:30:59.485Z,17.80
2022-09-10T09:33:34.422Z,14.70
2022-09-10T09:36:11.062Z,15.80
2022-09-10T09:38:45.620Z,14.70
2022-09-10T09:41:24.880Z,16.90
2022-09-10T09:44:02.486Z,20.70
2022-09-10T09:46:34.538Z,17.70
2022-09-10T09:49:12.362Z,14.20
2022-09-10T09:51:46.501Z,16.90
2022-09-10T09:57:20.656Z,13.20
2022-09-10T09:59:52.920Z,15.50
2022-09-10T10:02:26.012Z,22.80
2022-09-10T10:05:03.527Z,19.90
2022-09-10T10:07:36.456Z,15.30
2022-09-10T10:10:09.765Z,22.10
2022-09-10T10:12:50.404Z,20.90
2022-09-10T10:15:38.859Z,17.10
2022-09-10T10:18:31.801Z,17.90
2022-09-10T10:21:17.408Z,15.30
2022-09-10T10:23:49.077Z,18.00
2022-09-10T10:26:28.605Z,18.70
2022-09-10T10:29:06.410Z,16.00
2022-09-10T10:31:41.764Z,15.60
2022-09-10T10:34:47.398Z,14.30
2022-09-10T10:37:28.895Z,14.60
2022-09-10T10:40:14.354Z,16.00
2022-09-10T10:45:36.649Z,12.90
2022-09-10T10:48:16.843Z,13.70
2022-09-10T10:50:56.600Z,17.00
2022-09-10T10:53:41.784Z,13.00
2022-09-10T10:56:18.960Z,13.10
2022-09-10T10:59:01.414Z,15.70
2022-09-10T11:01:36.402Z,14.20
2022-09-10T11:07:04.681Z,11.50
2022-09-10T11:09:42.042Z,13.80
2022-09-10T11:12:18.006Z,11.90
2022-09-10T11:14:52.798Z,13.10
2022-09-10T11:17:35.139Z,13.80
2022-09-10T11:20:28.503Z,20.10
2022-09-10T11:23:10.726Z,11.50
2022-09-10T11:25:49.961Z,11.20
2022-09-10T11:28:27.700Z,16.80
2022-09-10T11:31:05.170Z,12.00
2022-09-10T11:33:42.927Z,11.50
2022-09-10T11:36:21.982Z,11.10
2022-09-10T11:39:04.030Z,17.30
2022-09-10T11:41:42.296Z,11.60
2022-09-10T11:44:36.787Z,11.40
2022-09-10T11:47:14.523Z,11.40
2022-09-10T11:49:52.373Z,11.50
2022-09-10T11:52:25.872Z,9.10
2022-09-10T11:54:57.379Z,10.40
2022-09-10T11:57:37.138Z,11.30
2022-09-10T12:00:15.767Z,8.70
2022-09-10T12:03:25.694Z,12.30
2022-09-10T12:06:04.846Z,12.30
2022-09-10T12:08:48.554Z,12.30
2022-09-10T12:11:29.583Z,13.30
2022-09-10T12:14:08.493Z,9.60
2022-09-10T12:16:44.095Z,10.20
2022-09-10T12:19:26.116Z,10.10
2022-09-10T12:22:03.366Z,11.90
2022-09-10T12:24:36.731Z,10.30
2022-09-10T12:27:10.215Z,12.60
2022-09-10T12:29:42.122Z,11.30
2022-09-10T12:32:32.344Z,11.20
2022-09-10T12:35:46.013Z,12.00
2022-09-10T12:38:50.927Z,10.70
2022-09-10T12:41:58.201Z,11.00
2022-09-10T12:44:49.765Z,18.30
2022-09-10T12:47:53.058Z,16.10
2022-09-10T12:50:33.464Z,10.30
2022-09-10T12:53:38.552Z,10.10
2022-09-10T12:56:27.310Z,9.10
2022-09-10T12:59:13.097Z,8.60
2022-09-10T13:01:47.956Z,11.50
2022-09-10T13:04:28.685Z,15.10
2022-09-10T13:07:04.221Z,9.70
2022-09-10T13:09:38.262Z,9.30
2022-09-10T13:12:21.107Z,10.20
2022-09-10T13:14:57.534Z,9.50
2022-09-10T13:18:01.448Z,9.20
2022-09-10T13:20:35.599Z,9.30
2022-09-10T13:23:21.604Z,12.20
2022-09-10T13:25:53.371Z,8.40
2022-09-10T13:29:00.829Z,15.70
2022-09-10T13:31:43.567Z,9.70
2022-09-10T13:34:43.379Z,10.50
2022-09-10T13:37:36.793Z,9.90
2022-09-10T13:40:43.371Z,8.80
2022-09-10T13:43:31.282Z,14.60
2022-09-10T13:46:05.945Z,11.90
2022-09-10T13:49:50.697Z,11.00
2022-09-10T13:53:30.221Z,14.30
2022-09-10T13:56:12.297Z,14.20
2022-09-10T13:58:57.110Z,12.30
2022-09-10T14:01:54.082Z,13.50
2022-09-10T14:04:27.497Z,17.00
2022-09-10T14:07:06.035Z,17.30
2022-09-10T14:09:38.381Z,13.40
2022-09-10T14:12:12.570Z,12.10
2022-09-10T14:14:48.012Z,13.10
2022-09-10T14:17:23.299Z,13.00
2022-09-10T14:19:59.652Z,10.60
2022-09-10T14:22:32.071Z,9.00
2022-09-10T14:25:05.474Z,10.30
2022-09-10T14:27:40.759Z,13.20
2022-09-10T14:30:28.736Z,14.20
2022-09-10T14:33:30.927Z,11.90
2022-09-10T14:36:17.446Z,11.90
2022-09-10T14:39:00.217Z,13.40
2022-09-10T14:41:34.100Z,12.50
2022-09-10T14:44:30.845Z,14.00
2022-09-10T14:47:14.573Z,16.70
2022-09-10T14:49:47.326Z,11.20
2022-09-10T14:52:18.250Z,16.80
2022-09-10T14:54:49.453Z,14.80
2022-09-10T14:57:20.709Z,12.60
2022-09-10T14:59:56.630Z,17.50
2022-09-10T15:02:29.879Z,13.00
2022-09-10T15:05:00.749Z,13.70
2022-09-10T15:07:32.864Z,14.80
2022-09-10T15:10:05.154Z,15.20
2022-09-10T15:12:38.213Z,17.30
2022-09-10T15:15:17.183Z,15.40
2022-09-10T15:17:48.499Z,14.60
2022-09-10T15:20:21.272Z,11.30
2022-09-10T15:25:38.196Z,14.00
2022-09-10T15:28:10.143Z,13.20
2022-09-10T15:30:41.736Z,13.70
2022-09-10T15:33:15.754Z,11.10
2022-09-10T15:35:48.029Z,13.80
2022-09-10T15:38:21.393Z,12.20
2022-09-10T15:40:53.328Z,13.70
2022-09-10T15:43:26.779Z,11.70
2022-09-10T15:46:04.595Z,14.10
2022-09-10T15:48:36.813Z,16.00
2022-09-10T15:51:15.450Z,19.10
2022-09-10T15:53:46.782Z,20.70
2022-09-10T15:56:18.252Z,16.00
2022-09-10T15:58:55.125Z,17.90
2022-09-10T16:01:29.317Z,17.40
2022-09-10T16:04:03.272Z,18.10
2022-09-10T16:06:37.765Z,15.70
2022-09-10T16:09:14.806Z,17.00
2022-09-10T16:11:46.709Z,21.70
2022-09-10T16:14:18.808Z,20.20
2022-09-10T16:16:51.113Z,21.00
2022-09-10T16:19:23.291Z,17.60
2022-09-10T16:21:54.348Z,15.90
2022-09-10T16:24:25.708Z,19.40
2022-09-10T16:26:59.589Z,17.90
2022-09-10T16:29:32.524Z,20.90
2022-09-10T16:32:08.355Z,19.80
2022-09-10T16:34:40.928Z,17.00
2022-09-10T16:37:12.283Z,17.00
2022-09-10T16:39:43.498Z,20.00
2022-09-10T16:42:24.169Z,24.60
2022-09-10T16:44:57.042Z,19.50
2022-09-10T16:47:29.456Z,18.10
2022-09-10T16:50:00.435Z,19.30
2022-09-10T16:52:33.580Z,15.00
2022-09-10T16:55:08.773Z,16.00
2022-09-10T16:57:39.773Z,14.60
2022-09-10T17:00:14.011Z,15.80
2022-09-10T17:02:45.047Z,14.30
2022-09-10T17:05:18.573Z,15.30
2022-09-10T17:07:52.427Z,12.90
2022-09-10T17:10:23.477Z,12.80
2022-09-10T17:12:55.754Z,14.40
2022-09-10T17:15:27.035Z,15.80
2022-09-10T17:17:58.759Z,14.50
2022-09-10T17:20:51.279Z,15.80
2022-09-10T17:23:22.614Z,17.90
2022-09-10T17:25:53.617Z,18.50
2022-09-10T17:28:28.059Z,15.30
2022-09-10T17:31:02.182Z,18.80
2022-09-10T17:33:36.541Z,14.40
2022-09-10T17:36:08.287Z,15.60
2022-09-10T17:38:39.669Z,15.20
2022-09-10T17:41:14.662Z,19.50
2022-09-10T17:46:19.169Z,15.30
2022-09-10T17:48:50.892Z,18.60
2022-09-10T17:51:24.007Z,15.50
2022-09-10T17:54:04.672Z,17.10
2022-09-10T17:56:35.816Z,15.00
2022-09-10T17:59:07.857Z,15.10
2022-09-10T18:01:40.394Z,15.10
2022-09-10T18:04:14.464Z,15.10
2022-09-10T18:06:50.178Z,13.60
2022-09-10T18:09:23.678Z,15.60
2022-09-10T18:11:56.630Z,19.30
2022-09-10T18:14:29.705Z,14.10
2022-09-10T18:17:00.879Z,15.90
2022-09-10T18:19:33.250Z,14.10
2022-09-10T18:22:06.555Z,11.80
2022-09-10T18:24:37.952Z,11.80
2022-09-10T18:27:13.096Z,13.10
2022-09-10T18:29:47.736Z,14.00
2022-09-10T18:32:18.773Z,13.30
2022-09-10T18:34:50.045Z,11.60
2022-09-10T18:37:22.289Z,10.30
2022-09-10T18:39:56.502Z,7.40
2022-09-10T18:42:27.789Z,9.40
2022-09-10T18:44:58.722Z,10.20
2022-09-10T18:47:43.962Z,8.80
2022-09-10T18:52:53.567Z,7.30
2022-09-10T18:55:26.537Z,9.20
2022-09-10T18:57:58.113Z,9.10
2022-09-10T19:00:30.589Z,8.20
2022-09-10T19:03:14.645Z,9.80
2022-09-10T19:06:00.629Z,10.20
2022-09-10T19:09:36.431Z,10.50
2022-09-10T19:12:08.613Z,10.30
2022-09-10T19:14:39.581Z,20.40
2022-09-10T19:17:10.816Z,17.60
2022-09-10T19:19:42.632Z,14.40
2022-09-10T19:22:19.925Z,11.50
2022-09-10T19:24:58.235Z,11.60
2022-09-10T19:27:29.474Z,11.50
2022-09-10T19:30:23.971Z,10.70
2022-09-10T19:32:56.232Z,7.20
2022-09-10T19:35:27.858Z,7.30
2022-09-10T19:38:00.507Z,7.60
2022-09-10T19:40:37.827Z,9.80
2022-09-10T19:43:09.029Z,6.90
2022-09-10T19:45:42.005Z,8.50
2022-09-10T19:48:15.686Z,10.50
2022-09-10T19:51:13.611Z,8.20
2022-09-10T19:53:45.034Z,7.60
2022-09-10T19:56:20.591Z,7.50
2022-09-10T19:58:55.856Z,11.30
2022-09-10T20:01:31.361Z,6.60
2022-09-10T20:04:06.278Z,10.30
2022-09-10T20:06:38.096Z,7.50
2022-09-10T20:09:10.983Z,7.30
2022-09-10T20:11:42.131Z,7.90
2022-09-10T20:14:17.070Z,7.70
2022-09-10T20:16:48.717Z,5.30
2022-09-10T20:19:32.538Z,7.40
2022-09-10T20:22:03.601Z,6.50
2022-09-10T20:24:58.290Z,10.00
2022-09-10T20:27:30.746Z,8.30
2022-09-10T20:30:28.557Z,12.00
2022-09-10T20:33:01.540Z,6.60
2022-09-10T20:35:33.978Z,19.60
2022-09-10T20:38:05.100Z,11.60
2022-09-10T20:40:36.463Z,7.60
2022-09-10T20:43:13.001Z,11.20
2022-09-10T20:45:51.938Z,12.60
2022-09-10T20:48:49.149Z,9.60
2022-09-10T20:51:45.665Z,8.90
2022-09-10T20:54:18.889Z,10.70
2022-09-10T20:56:50.483Z,8.70
2022-09-10T20:59:27.550Z,9.80
2022-09-10T21:02:03.020Z,10.80
2022-09-10T21:04:35.064Z,15.80
2022-09-10T21:07:11.464Z,8.80
2022-09-10T21:09:44.001Z,11.40
2022-09-10T21:12:19.064Z,13.30
2022-09-10T21:14:59.686Z,12.90
2022-09-10T21:17:31.060Z,9.90
2022-09-10T21:20:03.054Z,10.50
2022-09-10T21:22:34.368Z,11.90
2022-09-10T21:25:06.369Z,11.50
2022-09-10T21:27:37.535Z,8.70
2022-09-10T21:30:11.003Z,9.20
2022-09-10T21:32:41.945Z,11.50
2022-09-10T21:35:13.246Z,13.30
2022-09-10T21:37:44.216Z,12.90
2022-09-10T21:40:15.475Z,10.20
2022-09-10T21:42:46.942Z,13.30
2022-09-10T21:45:19.589Z,13.10
2022-09-10T21:50:23.689Z,10.50
2022-09-10T21:52:54.868Z,12.30
2022-09-10T21:55:26.506Z,11.50
2022-09-10T21:57:58.337Z,19.10
2022-09-10T22:00:29.231Z,15.10
2022-09-10T22:03:01.038Z,11.40
2022-09-10T22:05:33.724Z,13.90
2022-09-10T22:08:07.121Z,11.60
2022-09-10T22:10:42.060Z,11.70
2022-09-10T22:13:13.283Z,11.00
2022-09-10T22:15:45.060Z,12.60
2022-09-10T22:18:15.917Z,11.10
2022-09-10T22:20:46.940Z,13.10
2022-09-10T22:23:17.827Z,16.20
2022-09-10T22:25:48.702Z,12.00
2022-09-10T22:28:21.692Z,12.90
2022-09-10T22:30:53.092Z,15.90
2022-09-10T22:33:27.630Z,14.70
2022-09-10T22:36:08.555Z,15.30
2022-09-10T22:38:39.827Z,16.80
2022-09-10T22:41:11.284Z,19.20
2022-09-10T22:43:43.203Z,18.60
2022-09-10T22:46:14.676Z,23.30
2022-09-10T22:48:46.749Z,15.10
2022-09-10T22:51:19.815Z,18.30
2022-09-10T22:53:51.701Z,18.50
2022-09-10T22:56:26.198Z,14.90
2022-09-10T22:58:59.640Z,15.00
2022-09-10T23:01:33.904Z,16.50
2022-09-10T23:04:06.524Z,17.20
2022-09-10T23:06:39.609Z,18.60
2022-09-10T23:09:12.685Z,14.60
2022-09-10T23:11:45.216Z,16.80
2022-09-10T23:14:17.949Z,19.00
2022-09-10T23:16:51.937Z,17.60
2022-09-10T23:19:24.644Z,17.80
2022-09-10T23:21:56.778Z,17.80
2022-09-10T23:24:29.225Z,18.00
2022-09-10T23:27:00.816Z,21.20
2022-09-10T23:29:31.872Z,17.50
2022-09-10T23:32:02.953Z,15.90
2022-09-10T23:34:35.018Z,20.90
2022-09-10T23:37:06.159Z,16.00
2022-09-10T23:39:37.091Z,17.70
2022-09-10T23:42:08.497Z,17.70
2022-09-10T23:44:39.472Z,18.90
2022-09-10T23:47:10.288Z,18.20
2022-09-10T23:49:41.134Z,15.70
2022-09-10T23:52:11.935Z,16.00
2022-09-10T23:54:42.882Z,18.60
2022-09-10T23:57:13.749Z,14.50
2022-09-10T23:59:44.914Z,16.60
